sensor_id;sensor_type;location;lat;lon;timestamp;pressure;altitude;pressure_sealevel;temperature;humidity
21574;BME280;10948;48.706;9.258;2022-08-24T00:01:50;97879.97;;;18.30;100.00
21574;BME280;10948;48.706;9.258;2022-08-24T00:04:15;97880.31;;;18.36;100.00
21574;BME280;10948;48.706;9.258;2022-08-24T00:06:41;97881.13;;;18.84;92.90
21574;BME280;10948;48.706;9.258;2022-08-24T00:09:06;97883.72;;;18.27;99.28
21574;BME280;10948;48.706;9.258;2022-08-24T00:11:31;97878.81;;;18.13;100.00
21574;BME280;10948;48.706;9.258;2022-08-24T00:13:56;97879.41;;;18.07;100.00
21574;BME280;10948;48.706;9.258;2022-08-24T00:16:22;97880.50;;;18.05;100.00
21574;BME280;10948;48.706;9.258;2022-08-24T00:18:47;97878.81;;;18.13;100.00
21574;BME280;10948;48.706;9.258;2022-08-24T00:21:13;97872.00;;;18.50;95.60
21574;BME280;10948;48.706;9.258;2022-08-24T00:23:38;97885.28;;;18.39;95.97
21574;BME280;10948;48.706;9.258;2022-08-24T00:26:03;97882.31;;;18.14;100.00
21574;BME280;10948;48.706;9.258;2022-08-24T00:28:29;97880.34;;;18.16;100.00
21574;BME280;10948;48.706;9.258;2022-08-24T00:30:54;97876.56;;;17.99;100.00
21574;BME280;10948;48.706;9.258;2022-08-24T00:33:20;97880.63;;;18.03;100.00
21574;BME280;10948;48.706;9.258;2022-08-24T00:35:45;97873.09;;;18.57;95.15
21574;BME280;10948;48.706;9.258;2022-08-24T00:38:10;97883.06;;;18.44;93.25
21574;BME280;10948;48.706;9.258;2022-08-24T00:40:37;97879.94;;;18.01;99.76
21574;BME280;10948;48.706;9.258;2022-08-24T00:43:03;97877.44;;;18.09;100.00
21574;BME280;10948;48.706;9.258;2022-08-24T00:45:29;97877.38;;;17.81;100.00
21574;BME280;10948;48.706;9.258;2022-08-24T00:47:57;97878.75;;;17.75;100.00
21574;BME280;10948;48.706;9.258;2022-08-24T00:50:34;97879.09;;;17.61;100.00
21574;BME280;10948;48.706;9.258;2022-08-24T00:53:03;97881.41;;;17.55;100.00
21574;BME280;10948;48.706;9.258;2022-08-24T00:55:32;97878.00;;;18.03;100.00
21574;BME280;10948;48.706;9.258;2022-08-24T00:58:02;97879.66;;;18.04;97.49
21574;BME280;10948;48.706;9.258;2022-08-24T01:00:31;97881.50;;;17.74;100.00
21574;BME280;10948;48.706;9.258;2022-08-24T01:02:59;97875.44;;;17.92;100.00
21574;BME280;10948;48.706;9.258;2022-08-24T01:05:29;97874.41;;;18.14;97.05
21574;BME280;10948;48.706;9.258;2022-08-24T01:07:55;97872.59;;;17.65;100.00
21574;BME280;10948;48.706;9.258;2022-08-24T01:10:22;97877.13;;;17.93;100.00
21574;BME280;10948;48.706;9.258;2022-08-24T01:12:52;97877.34;;;18.20;96.01
21574;BME280;10948;48.706;9.258;2022-08-24T01:15:18;97882.94;;;17.87;98.31
21574;BME280;10948;48.706;9.258;2022-08-24T01:17:44;97879.97;;;18.20;95.53
21574;BME280;10948;48.706;9.258;2022-08-24T01:20:28;97873.81;;;18.01;95.82
21574;BME280;10948;48.706;9.258;2022-08-24T01:25:27;97882.25;;;17.35;100.00
21574;BME280;10948;48.706;9.258;2022-08-24T01:27:53;97886.28;;;17.89;99.30
21574;BME280;10948;48.706;9.258;2022-08-24T01:30:19;97885.50;;;17.68;99.01
21574;BME280;10948;48.706;9.258;2022-08-24T01:32:52;97888.38;;;17.65;98.71
21574;BME280;10948;48.706;9.258;2022-08-24T01:35:18;97886.44;;;17.97;96.44
21574;BME280;10948;48.706;9.258;2022-08-24T01:37:43;97889.59;;;17.91;95.56
21574;BME280;10948;48.706;9.258;2022-08-24T01:40:08;97884.44;;;17.50;98.51
21574;BME280;10948;48.706;9.258;2022-08-24T01:42:34;97885.56;;;17.27;100.00
21574;BME280;10948;48.706;9.258;2022-08-24T01:45:00;97887.25;;;17.58;99.02
21574;BME280;10948;48.706;9.258;2022-08-24T01:47:25;97897.00;;;17.67;97.53
21574;BME280;10948;48.706;9.258;2022-08-24T01:49:50;97894.25;;;17.78;95.35
21574;BME280;10948;48.706;9.258;2022-08-24T01:52:21;97896.16;;;17.67;94.67
21574;BME280;10948;48.706;9.258;2022-08-24T01:54:47;97894.00;;;17.51;97.30
21574;BME280;10948;48.706;9.258;2022-08-24T01:57:13;97901.91;;;17.51;97.66
21574;BME280;10948;48.706;9.258;2022-08-24T01:59:39;97894.94;;;17.41;98.46
21574;BME280;10948;48.706;9.258;2022-08-24T02:02:07;97905.41;;;16.80;100.00
21574;BME280;10948;48.706;9.258;2022-08-24T02:04:33;97902.50;;;17.14;100.00
21574;BME280;10948;48.706;9.258;2022-08-24T02:06:58;97896.75;;;17.50;99.21
21574;BME280;10948;48.706;9.258;2022-08-24T02:09:24;97898.56;;;17.49;97.42
21574;BME280;10948;48.706;9.258;2022-08-24T02:11:49;97910.50;;;17.12;100.00
21574;BME280;10948;48.706;9.258;2022-08-24T02:14:14;97913.84;;;17.14;100.00
21574;BME280;10948;48.706;9.258;2022-08-24T02:16:40;97905.31;;;17.02;100.00
21574;BME280;10948;48.706;9.258;2022-08-24T02:19:05;97910.28;;;16.64;100.00
21574;BME280;10948;48.706;9.258;2022-08-24T02:21:30;97913.13;;;16.61;100.00
21574;BME280;10948;48.706;9.258;2022-08-24T02:23:56;97909.66;;;16.71;100.00
21574;BME280;10948;48.706;9.258;2022-08-24T02:26:21;97913.41;;;16.58;100.00
21574;BME280;10948;48.706;9.258;2022-08-24T02:28:47;97910.66;;;16.59;100.00
21574;BME280;10948;48.706;9.258;2022-08-24T02:31:12;97905.56;;;16.47;100.00
21574;BME280;10948;48.706;9.258;2022-08-24T02:33:38;97900.88;;;16.50;100.00
21574;BME280;10948;48.706;9.258;2022-08-24T02:36:04;97907.63;;;16.95;100.00
21574;BME280;10948;48.706;9.258;2022-08-24T02:38:30;97903.56;;;17.32;99.82
21574;BME280;10948;48.706;9.258;2022-08-24T02:40:55;97904.34;;;17.23;100.00
21574;BME280;10948;48.706;9.258;2022-08-24T02:43:22;97904.34;;;17.02;100.00
21574;BME280;10948;48.706;9.258;2022-08-24T02:45:48;97904.88;;;16.97;100.00
21574;BME280;10948;48.706;9.258;2022-08-24T02:48:13;97904.63;;;16.68;100.00
21574;BME280;10948;48.706;9.258;2022-08-24T02:50:39;97903.59;;;16.91;100.00
21574;BME280;10948;48.706;9.258;2022-08-24T02:53:05;97900.50;;;17.06;97.05
21574;BME280;10948;48.706;9.258;2022-08-24T02:55:30;97903.59;;;16.60;100.00
21574;BME280;10948;48.706;9.258;2022-08-24T02:57:56;97905.06;;;16.53;100.00
21574;BME280;10948;48.706;9.258;2022-08-24T03:00:21;97905.06;;;16.53;100.00
21574;BME280;10948;48.706;9.258;2022-08-24T03:02:46;97903.94;;;16.24;100.00
21574;BME280;10948;48.706;9.258;2022-08-24T03:05:12;97899.91;;;16.09;100.00
21574;BME280;10948;48.706;9.258;2022-08-24T03:07:38;97903.72;;;16.05;100.00
21574;BME280;10948;48.706;9.258;2022-08-24T03:10:04;97899.84;;;16.31;100.00
21574;BME280;10948;48.706;9.258;2022-08-24T03:12:30;97894.19;;;16.78;100.00
21574;BME280;10948;48.706;9.258;2022-08-24T03:14:55;97903.88;;;16.46;100.00
21574;BME280;10948;48.706;9.258;2022-08-24T03:17:20;97900.34;;;16.25;100.00
21574;BME280;10948;48.706;9.258;2022-08-24T03:19:48;97898.19;;;16.19;100.00
21574;BME280;10948;48.706;9.258;2022-08-24T03:22:13;97902.28;;;16.01;100.00
21574;BME280;10948;48.706;9.258;2022-08-24T03:24:38;97905.09;;;16.31;100.00
21574;BME280;10948;48.706;9.258;2022-08-24T03:27:03;97900.22;;;16.69;100.00
21574;BME280;10948;48.706;9.258;2022-08-24T03:29:29;97904.31;;;16.62;100.00
21574;BME280;10948;48.706;9.258;2022-08-24T03:31:57;97902.56;;;16.51;100.00
21574;BME280;10948;48.706;9.258;2022-08-24T03:34:22;97901.53;;;16.63;100.00
21574;BME280;10948;48.706;9.258;2022-08-24T03:36:47;97899.06;;;16.62;100.00
21574;BME280;10948;48.706;9.258;2022-08-24T03:39:13;97898.41;;;16.27;100.00
21574;BME280;10948;48.706;9.258;2022-08-24T03:41:38;97905.00;;;16.21;100.00
21574;BME280;10948;48.706;9.258;2022-08-24T03:44:03;97907.97;;;16.39;100.00
21574;BME280;10948;48.706;9.258;2022-08-24T03:46:29;97902.47;;;16.31;100.00
21574;BME280;10948;48.706;9.258;2022-08-24T03:48:59;97903.16;;;15.68;100.00
21574;BME280;10948;48.706;9.258;2022-08-24T03:51:25;97901.38;;;15.80;100.00
21574;BME280;10948;48.706;9.258;2022-08-24T03:53:52;97904.59;;;15.72;100.00
21574;BME280;10948;48.706;9.258;2022-08-24T03:56:17;97907.56;;;15.79;100.00
21574;BME280;10948;48.706;9.258;2022-08-24T03:58:43;97902.44;;;15.77;100.00
21574;BME280;10948;48.706;9.258;2022-08-24T04:01:08;97909.84;;;15.72;100.00
21574;BME280;10948;48.706;9.258;2022-08-24T04:03:35;97905.09;;;15.66;100.00
21574;BME280;10948;48.706;9.258;2022-08-24T04:06:01;97900.50;;;15.90;100.00
21574;BME280;10948;48.706;9.258;2022-08-24T04:08:26;97905.84;;;16.22;100.00
21574;BME280;10948;48.706;9.258;2022-08-24T04:10:52;97911.91;;;16.33;100.00
21574;BME280;10948;48.706;9.258;2022-08-24T04:13:18;97917.75;;;16.26;100.00
21574;BME280;10948;48.706;9.258;2022-08-24T04:15:43;97913.25;;;16.17;100.00
21574;BME280;10948;48.706;9.258;2022-08-24T04:18:09;97910.72;;;16.26;100.00
21574;BME280;10948;48.706;9.258;2022-08-24T04:20:38;97908.56;;;16.42;100.00
21574;BME280;10948;48.706;9.258;2022-08-24T04:23:04;97910.25;;;16.21;100.00
21574;BME280;10948;48.706;9.258;2022-08-24T04:25:29;97918.47;;;16.39;100.00
21574;BME280;10948;48.706;9.258;2022-08-24T04:27:54;97920.66;;;16.12;100.00
21574;BME280;10948;48.706;9.258;2022-08-24T04:30:20;97912.97;;;16.31;100.00
21574;BME280;10948;48.706;9.258;2022-08-24T04:32:45;97913.63;;;16.12;100.00
21574;BME280;10948;48.706;9.258;2022-08-24T04:35:11;97920.44;;;15.93;100.00
21574;BME280;10948;48.706;9.258;2022-08-24T04:37:36;97922.16;;;16.47;100.00
21574;BME280;10948;48.706;9.258;2022-08-24T04:40:03;97922.22;;;16.88;97.19
21574;BME280;10948;48.706;9.258;2022-08-24T04:42:28;97927.13;;;17.13;94.15
21574;BME280;10948;48.706;9.258;2022-08-24T04:44:55;97918.13;;;17.36;93.44
21574;BME280;10948;48.706;9.258;2022-08-24T04:47:20;97925.03;;;17.78;87.96
21574;BME280;10948;48.706;9.258;2022-08-24T04:49:45;97923.16;;;18.38;85.36
21574;BME280;10948;48.706;9.258;2022-08-24T04:52:11;97927.47;;;18.58;82.73
21574;BME280;10948;48.706;9.258;2022-08-24T04:54:36;97927.78;;;18.74;82.32
21574;BME280;10948;48.706;9.258;2022-08-24T04:57:02;97923.22;;;19.70;75.74
21574;BME280;10948;48.706;9.258;2022-08-24T04:59:28;97924.16;;;20.59;69.92
21574;BME280;10948;48.706;9.258;2022-08-24T05:01:53;97928.22;;;20.98;67.45
21574;BME280;10948;48.706;9.258;2022-08-24T05:04:18;97931.59;;;20.29;70.84
21574;BME280;10948;48.706;9.258;2022-08-24T05:06:43;97933.38;;;21.00;69.19
21574;BME280;10948;48.706;9.258;2022-08-24T05:09:09;97919.66;;;22.40;62.26
21574;BME280;10948;48.706;9.258;2022-08-24T05:11:35;97919.97;;;22.86;59.57
21574;BME280;10948;48.706;9.258;2022-08-24T05:14:01;97919.91;;;22.54;60.75
21574;BME280;10948;48.706;9.258;2022-08-24T05:16:26;97925.44;;;23.09;60.74
21574;BME280;10948;48.706;9.258;2022-08-24T05:18:53;97930.88;;;22.67;60.98
21574;BME280;10948;48.706;9.258;2022-08-24T05:21:19;97936.19;;;22.59;61.97
21574;BME280;10948;48.706;9.258;2022-08-24T05:23:45;97938.63;;;23.26;60.11
21574;BME280;10948;48.706;9.258;2022-08-24T05:26:21;97937.19;;;22.74;59.07
21574;BME280;10948;48.706;9.258;2022-08-24T05:28:47;97936.56;;;22.39;62.25
21574;BME280;10948;48.706;9.258;2022-08-24T05:31:14;97932.94;;;21.73;63.99
21574;BME280;10948;48.706;9.258;2022-08-24T05:33:39;97946.72;;;21.16;67.06
21574;BME280;10948;48.706;9.258;2022-08-24T05:36:05;97939.75;;;21.32;67.36
21574;BME280;10948;48.706;9.258;2022-08-24T05:38:31;97928.56;;;22.23;65.40
21574;BME280;10948;48.706;9.258;2022-08-24T05:40:57;97928.16;;;21.76;67.17
21574;BME280;10948;48.706;9.258;2022-08-24T05:43:22;97930.84;;;21.84;68.05
21574;BME280;10948;48.706;9.258;2022-08-24T05:45:48;97934.91;;;21.96;67.83
21574;BME280;10948;48.706;9.258;2022-08-24T05:48:13;97938.88;;;21.67;68.81
21574;BME280;10948;48.706;9.258;2022-08-24T05:50:38;97936.75;;;21.53;68.56
21574;BME280;10948;48.706;9.258;2022-08-24T05:53:04;97943.41;;;21.57;69.94
21574;BME280;10948;48.706;9.258;2022-08-24T05:55:29;97934.81;;;22.14;68.19
21574;BME280;10948;48.706;9.258;2022-08-24T05:57:55;97940.78;;;22.57;66.17
21574;BME280;10948;48.706;9.258;2022-08-24T06:00:20;97938.50;;;22.70;64.59
21574;BME280;10948;48.706;9.258;2022-08-24T06:02:47;97938.88;;;22.91;64.33
21574;BME280;10948;48.706;9.258;2022-08-24T06:05:12;97947.16;;;22.80;64.85
21574;BME280;10948;48.706;9.258;2022-08-24T06:07:38;97943.56;;;23.13;63.71
21574;BME280;10948;48.706;9.258;2022-08-24T06:10:03;97950.50;;;23.86;59.77
21574;BME280;10948;48.706;9.258;2022-08-24T06:12:29;97953.19;;;23.06;61.44
21574;BME280;10948;48.706;9.258;2022-08-24T06:14:55;97955.34;;;23.91;59.68
21574;BME280;10948;48.706;9.258;2022-08-24T06:17:20;97950.31;;;24.03;58.25
21574;BME280;10948;48.706;9.258;2022-08-24T06:19:45;97956.31;;;25.50;56.96
21574;BME280;10948;48.706;9.258;2022-08-24T06:22:10;97960.75;;;25.57;56.34
21574;BME280;10948;48.706;9.258;2022-08-24T06:24:36;97948.31;;;25.50;56.00
21574;BME280;10948;48.706;9.258;2022-08-24T06:27:21;97952.91;;;25.11;56.68
21574;BME280;10948;48.706;9.258;2022-08-24T06:32:17;97947.88;;;27.12;51.58
21574;BME280;10948;48.706;9.258;2022-08-24T06:34:43;97940.31;;;27.16;49.81
21574;BME280;10948;48.706;9.258;2022-08-24T06:37:08;97949.72;;;28.90;47.87
21574;BME280;10948;48.706;9.258;2022-08-24T06:39:33;97946.16;;;29.49;46.86
21574;BME280;10948;48.706;9.258;2022-08-24T06:41:58;97949.69;;;27.75;50.20
21574;BME280;10948;48.706;9.258;2022-08-24T06:44:24;97948.34;;;28.47;49.47
21574;BME280;10948;48.706;9.258;2022-08-24T06:46:49;97948.34;;;27.37;51.41
21574;BME280;10948;48.706;9.258;2022-08-24T06:49:16;97949.28;;;27.99;51.47
21574;BME280;10948;48.706;9.258;2022-08-24T06:51:41;97948.59;;;28.24;51.21
21574;BME280;10948;48.706;9.258;2022-08-24T06:54:07;97950.16;;;28.93;48.39
21574;BME280;10948;48.706;9.258;2022-08-24T06:56:34;97960.91;;;28.46;49.84
21574;BME280;10948;48.706;9.258;2022-08-24T06:58:59;97954.00;;;27.76;49.40
21574;BME280;10948;48.706;9.258;2022-08-24T07:01:27;97960.59;;;27.25;51.20
21574;BME280;10948;48.706;9.258;2022-08-24T07:03:52;97962.13;;;28.91;48.75
21574;BME280;10948;48.706;9.258;2022-08-24T07:06:18;97955.88;;;31.16;43.41
21574;BME280;10948;48.706;9.258;2022-08-24T07:08:43;97962.75;;;32.23;41.10
21574;BME280;10948;48.706;9.258;2022-08-24T07:11:09;97969.50;;;31.58;43.62
21574;BME280;10948;48.706;9.258;2022-08-24T07:13:35;97972.97;;;33.63;40.97
21574;BME280;10948;48.706;9.258;2022-08-24T07:16:00;97971.69;;;35.48;37.60
21574;BME280;10948;48.706;9.258;2022-08-24T07:18:26;97976.34;;;36.68;36.19
21574;BME280;10948;48.706;9.258;2022-08-24T07:20:51;97975.50;;;33.99;39.12
21574;BME280;10948;48.706;9.258;2022-08-24T07:23:17;97977.38;;;32.51;41.43
21574;BME280;10948;48.706;9.258;2022-08-24T07:25:44;97971.59;;;37.02;35.53
21574;BME280;10948;48.706;9.258;2022-08-24T07:28:09;97976.72;;;39.74;32.89
21574;BME280;10948;48.706;9.258;2022-08-24T07:30:36;97982.97;;;41.66;30.99
21574;BME280;10948;48.706;9.258;2022-08-24T07:33:02;97980.59;;;39.01;32.36
21574;BME280;10948;48.706;9.258;2022-08-24T07:35:29;97982.44;;;39.97;31.60
21574;BME280;10948;48.706;9.258;2022-08-24T07:37:56;97990.00;;;41.82;30.97
21574;BME280;10948;48.706;9.258;2022-08-24T07:40:22;97981.50;;;38.65;33.65
21574;BME280;10948;48.706;9.258;2022-08-24T07:42:48;97990.13;;;35.35;35.71
21574;BME280;10948;48.706;9.258;2022-08-24T07:45:14;97980.13;;;38.63;33.51
21574;BME280;10948;48.706;9.258;2022-08-24T07:47:39;97989.75;;;43.16;28.80
21574;BME280;10948;48.706;9.258;2022-08-24T07:50:05;97994.19;;;42.65;28.74
21574;BME280;10948;48.706;9.258;2022-08-24T07:52:30;97996.78;;;46.34;25.73
21574;BME280;10948;48.706;9.258;2022-08-24T07:54:56;97991.88;;;38.73;31.03
21574;BME280;10948;48.706;9.258;2022-08-24T07:57:22;97991.47;;;40.18;30.49
21574;BME280;10948;48.706;9.258;2022-08-24T07:59:48;97991.16;;;42.90;28.46
21574;BME280;10948;48.706;9.258;2022-08-24T08:02:13;97999.66;;;43.72;26.84
21574;BME280;10948;48.706;9.258;2022-08-24T08:04:39;97997.25;;;43.29;28.15
21574;BME280;10948;48.706;9.258;2022-08-24T08:07:04;97991.94;;;44.25;27.05
21574;BME280;10948;48.706;9.258;2022-08-24T08:09:31;97994.66;;;39.45;30.73
21574;BME280;10948;48.706;9.258;2022-08-24T08:11:56;97993.88;;;42.95;27.51
21574;BME280;10948;48.706;9.258;2022-08-24T08:14:22;98001.41;;;45.18;25.62
21574;BME280;10948;48.706;9.258;2022-08-24T08:16:47;98008.16;;;46.41;23.71
21574;BME280;10948;48.706;9.258;2022-08-24T08:19:13;98009.69;;;47.33;23.15
21574;BME280;10948;48.706;9.258;2022-08-24T08:21:49;97995.34;;;49.05;22.09
21574;BME280;10948;48.706;9.258;2022-08-24T08:24:33;97997.59;;;51.03;21.62
21574;BME280;10948;48.706;9.258;2022-08-24T08:27:01;97995.16;;;52.44;20.85
21574;BME280;10948;48.706;9.258;2022-08-24T08:29:29;98003.75;;;52.38;21.14
21574;BME280;10948;48.706;9.258;2022-08-24T08:31:55;98002.94;;;53.65;19.96
21574;BME280;10948;48.706;9.258;2022-08-24T08:34:20;97999.34;;;50.95;20.73
21574;BME280;10948;48.706;9.258;2022-08-24T08:36:45;97988.81;;;51.88;20.89
21574;BME280;10948;48.706;9.258;2022-08-24T08:39:12;97995.13;;;53.36;19.15
21574;BME280;10948;48.706;9.258;2022-08-24T08:44:12;97987.59;;;46.47;22.71
21574;BME280;10948;48.706;9.258;2022-08-24T08:46:48;97991.34;;;56.21;18.19
21574;BME280;10948;48.706;9.258;2022-08-24T08:52:24;97979.97;;;49.16;21.27
21574;BME280;10948;48.706;9.258;2022-08-24T08:55:00;97968.63;;;48.17;22.23
21574;BME280;10948;48.706;9.258;2022-08-24T09:25:44;97952.22;;;36.93;30.68
21574;BME280;10948;48.706;9.258;2022-08-24T09:30:55;97946.06;;;36.76;30.75
21574;BME280;10948;48.706;9.258;2022-08-24T09:33:25;97948.59;;;40.23;28.10
21574;BME280;10948;48.706;9.258;2022-08-24T09:54:18;97938.78;;;38.76;29.55
21574;BME280;10948;48.706;9.258;2022-08-24T09:59:31;97934.38;;;37.50;30.00
21574;BME280;10948;48.706;9.258;2022-08-24T10:14:56;97928.53;;;37.63;31.14
21574;BME280;10948;48.706;9.258;2022-08-24T10:17:41;97926.50;;;40.20;27.66
21574;BME280;10948;48.706;9.258;2022-08-24T10:30:39;97904.94;;;40.08;27.66
21574;BME280;10948;48.706;9.258;2022-08-24T10:33:24;97917.59;;;37.58;26.78
21574;BME280;10948;48.706;9.258;2022-08-24T10:46:48;97897.31;;;39.95;25.93
21574;BME280;10948;48.706;9.258;2022-08-24T10:49:22;97890.56;;;34.97;30.52
21574;BME280;10948;48.706;9.258;2022-08-24T10:52:02;97890.25;;;38.01;27.51
21574;BME280;10948;48.706;9.258;2022-08-24T10:54:33;97893.28;;;35.25;30.23
21574;BME280;10948;48.706;9.258;2022-08-24T10:59:27;97895.13;;;33.19;32.20
21574;BME280;10948;48.706;9.258;2022-08-24T11:02:37;97894.03;;;34.42;31.44
21574;BME280;10948;48.706;9.258;2022-08-24T11:04:43;97888.63;;;34.81;30.61
21574;BME280;10948;48.706;9.258;2022-08-24T11:07:19;97887.94;;;34.23;31.56
21574;BME280;10948;48.706;9.258;2022-08-24T11:09:53;97898.06;;;32.88;32.42
21574;BME280;10948;48.706;9.258;2022-08-24T11:12:30;97888.34;;;38.07;28.39
21574;BME280;10948;48.706;9.258;2022-08-24T11:14:58;97884.72;;;39.04;28.35
21574;BME280;10948;48.706;9.258;2022-08-24T11:17:24;97900.00;;;35.39;30.20
21574;BME280;10948;48.706;9.258;2022-08-24T11:19:50;97885.25;;;35.80;30.45
21574;BME280;10948;48.706;9.258;2022-08-24T11:24:47;97887.97;;;35.02;30.97
21574;BME280;10948;48.706;9.258;2022-08-24T11:34:50;97869.97;;;35.57;30.00
21574;BME280;10948;48.706;9.258;2022-08-24T11:37:15;97867.81;;;35.92;30.52
21574;BME280;10948;48.706;9.258;2022-08-24T11:39:40;97879.47;;;32.51;32.01
21574;BME280;10948;48.706;9.258;2022-08-24T11:52:38;97855.69;;;36.59;29.03
21574;BME280;10948;48.706;9.258;2022-08-24T11:57:54;97860.72;;;37.20;31.01
21574;BME280;10948;48.706;9.258;2022-08-24T12:00:22;97857.94;;;37.78;29.09
21574;BME280;10948;48.706;9.258;2022-08-24T12:08:17;97867.78;;;33.16;30.62
21574;BME280;10948;48.706;9.258;2022-08-24T12:20:48;97861.28;;;35.22;28.80
21574;BME280;10948;48.706;9.258;2022-08-24T12:25:43;97847.88;;;33.74;30.79
21574;BME280;10948;48.706;9.258;2022-08-24T12:28:43;97850.22;;;34.96;29.75
21574;BME280;10948;48.706;9.258;2022-08-24T12:31:15;97844.84;;;35.62;29.75
21574;BME280;10948;48.706;9.258;2022-08-24T12:33:43;97848.16;;;37.77;29.21
21574;BME280;10948;48.706;9.258;2022-08-24T12:36:18;97842.00;;;35.35;29.35
21574;BME280;10948;48.706;9.258;2022-08-24T12:38:47;97841.00;;;34.80;28.66
21574;BME280;10948;48.706;9.258;2022-08-24T12:41:16;97836.63;;;35.73;27.60
21574;BME280;10948;48.706;9.258;2022-08-24T12:43:47;97855.16;;;32.03;31.95
21574;BME280;10948;48.706;9.258;2022-08-24T12:46:15;97845.31;;;34.53;30.25
21574;BME280;10948;48.706;9.258;2022-08-24T12:48:46;97838.09;;;36.40;28.71
21574;BME280;10948;48.706;9.258;2022-08-24T12:59:46;97835.66;;;37.08;28.58
21574;BME280;10948;48.706;9.258;2022-08-24T13:05:31;97828.00;;;36.57;30.12
21574;BME280;10948;48.706;9.258;2022-08-24T13:07:28;97845.94;;;36.15;29.66
21574;BME280;10948;48.706;9.258;2022-08-24T13:17:40;97827.75;;;35.61;30.30
21574;BME280;10948;48.706;9.258;2022-08-24T13:20:17;97829.88;;;34.37;31.88
21574;BME280;10948;48.706;9.258;2022-08-24T13:22:45;97818.53;;;35.24;31.58
21574;BME280;10948;48.706;9.258;2022-08-24T13:25:20;97817.09;;;35.05;31.72
21574;BME280;10948;48.706;9.258;2022-08-24T13:27:47;97816.44;;;35.15;32.19
21574;BME280;10948;48.706;9.258;2022-08-24T13:30:21;97816.22;;;36.25;31.74
21574;BME280;10948;48.706;9.258;2022-08-24T13:32:48;97815.91;;;35.29;31.28
21574;BME280;10948;48.706;9.258;2022-08-24T13:40:47;97813.34;;;34.78;31.29
21574;BME280;10948;48.706;9.258;2022-08-24T13:43:21;97816.75;;;35.02;31.21
21574;BME280;10948;48.706;9.258;2022-08-24T13:46:31;97821.25;;;33.66;33.39
21574;BME280;10948;48.706;9.258;2022-08-24T13:51:20;97817.59;;;32.26;35.94
21574;BME280;10948;48.706;9.258;2022-08-24T13:54:04;97807.38;;;33.28;34.42
21574;BME280;10948;48.706;9.258;2022-08-24T14:06:45;97803.53;;;31.46;36.68
21574;BME280;10948;48.706;9.258;2022-08-24T14:09:26;97797.22;;;32.89;36.38
21574;BME280;10948;48.706;9.258;2022-08-24T14:17:14;97788.97;;;34.22;35.97
21574;BME280;10948;48.706;9.258;2022-08-24T14:20:08;97791.63;;;33.94;36.22
21574;BME280;10948;48.706;9.258;2022-08-24T14:22:54;97787.41;;;34.38;36.11
21574;BME280;10948;48.706;9.258;2022-08-24T14:25:23;97788.72;;;32.45;37.43
21574;BME280;10948;48.706;9.258;2022-08-24T14:27:50;97780.34;;;33.05;37.61
21574;BME280;10948;48.706;9.258;2022-08-24T14:33:02;97782.25;;;33.16;36.81
21574;BME280;10948;48.706;9.258;2022-08-24T14:43:20;97787.09;;;33.49;37.23
21574;BME280;10948;48.706;9.258;2022-08-24T14:45:59;97789.28;;;31.99;39.71
21574;BME280;10948;48.706;9.258;2022-08-24T14:56:24;97785.34;;;32.49;39.89
21574;BME280;10948;48.706;9.258;2022-08-24T15:01:40;97776.63;;;30.35;42.22
21574;BME280;10948;48.706;9.258;2022-08-24T15:06:45;97772.50;;;30.33;42.28
21574;BME280;10948;48.706;9.258;2022-08-24T15:11:45;97774.53;;;30.37;42.63
21574;BME280;10948;48.706;9.258;2022-08-24T15:14:24;97773.47;;;30.76;42.38
21574;BME280;10948;48.706;9.258;2022-08-24T15:16:52;97767.28;;;31.00;41.63
21574;BME280;10948;48.706;9.258;2022-08-24T15:19:25;97769.06;;;31.54;40.61
21574;BME280;10948;48.706;9.258;2022-08-24T15:27:10;97758.31;;;31.37;41.23
21574;BME280;10948;48.706;9.258;2022-08-24T15:29:46;97768.34;;;30.99;41.83
21574;BME280;10948;48.706;9.258;2022-08-24T15:32:12;97768.25;;;30.50;43.37
21574;BME280;10948;48.706;9.258;2022-08-24T15:37:04;97769.00;;;29.82;45.06
21574;BME280;10948;48.706;9.258;2022-08-24T15:39:30;97769.69;;;30.15;43.72
21574;BME280;10948;48.706;9.258;2022-08-24T15:41:55;97762.09;;;30.12;43.81
21574;BME280;10948;48.706;9.258;2022-08-24T15:44:22;97765.94;;;30.91;42.45
21574;BME280;10948;48.706;9.258;2022-08-24T15:46:52;97762.53;;;30.40;42.45
21574;BME280;10948;48.706;9.258;2022-08-24T15:49:20;97773.09;;;29.91;44.67
21574;BME280;10948;48.706;9.258;2022-08-24T15:51:49;97771.03;;;29.93;44.28
21574;BME280;10948;48.706;9.258;2022-08-24T15:56:50;97771.50;;;29.77;45.47
21574;BME280;10948;48.706;9.258;2022-08-24T15:59:25;97771.56;;;29.51;45.34
21574;BME280;10948;48.706;9.258;2022-08-24T16:01:57;97769.47;;;29.66;45.27
21574;BME280;10948;48.706;9.258;2022-08-24T16:04:46;97768.69;;;29.26;45.05
21574;BME280;10948;48.706;9.258;2022-08-24T16:07:13;97774.66;;;29.35;45.76
21574;BME280;10948;48.706;9.258;2022-08-24T16:09:39;97776.53;;;29.15;46.16
21574;BME280;10948;48.706;9.258;2022-08-24T16:14:33;97774.88;;;29.53;45.02
21574;BME280;10948;48.706;9.258;2022-08-24T16:16:59;97776.56;;;29.21;46.44
21574;BME280;10948;48.706;9.258;2022-08-24T16:19:27;97773.06;;;29.14;46.60
21574;BME280;10948;48.706;9.258;2022-08-24T16:32:20;97767.44;;;29.29;46.08
21574;BME280;10948;48.706;9.258;2022-08-24T16:34:44;97767.06;;;29.06;47.40
21574;BME280;10948;48.706;9.258;2022-08-24T16:37:12;97765.78;;;28.63;47.56
21574;BME280;10948;48.706;9.258;2022-08-24T16:39:38;97777.97;;;28.59;48.44
21574;BME280;10948;48.706;9.258;2022-08-24T16:42:05;97788.03;;;28.70;48.61
21574;BME280;10948;48.706;9.258;2022-08-24T16:44:35;97784.78;;;28.74;48.97
21574;BME280;10948;48.706;9.258;2022-08-24T16:47:02;97783.34;;;28.72;48.45
21574;BME280;10948;48.706;9.258;2022-08-24T16:49:28;97770.75;;;28.79;48.40
21574;BME280;10948;48.706;9.258;2022-08-24T16:51:55;97780.22;;;28.75;48.78
21574;BME280;10948;48.706;9.258;2022-08-24T16:54:21;97787.47;;;28.08;49.48